createdAt,value
2023-02-21T00:00:26.373Z,10.00
2023-02-21T00:03:08.967Z,10.10
2023-02-21T00:05:51.732Z,10.07
2023-02-21T00:08:37.625Z,9.97
2023-02-21T00:11:21.733Z,9.97
2023-02-21T00:14:05.002Z,10.12
2023-02-21T00:16:47.202Z,9.83
2023-02-21T00:19:29.354Z,10.03
2023-02-21T00:22:11.976Z,10.22
2023-02-21T00:24:57.083Z,9.91
2023-02-21T00:27:40.487Z,10.30
2023-02-21T00:30:24.581Z,10.16
2023-02-21T00:33:07.394Z,10.40
2023-02-21T00:35:50.078Z,10.30
2023-02-21T00:38:33.221Z,10.22
2023-02-21T00:41:19.354Z,10.13
2023-02-21T00:44:02.027Z,10.27
2023-02-21T00:46:44.884Z,10.24
2023-02-21T00:49:27.476Z,10.29
2023-02-21T00:52:10.562Z,10.17
2023-02-21T00:54:53.385Z,10.29
2023-02-21T00:57:40.120Z,9.83
2023-02-21T01:00:29.753Z,10.23
2023-02-21T01:03:12.760Z,9.93
2023-02-21T01:05:55.584Z,10.15
2023-02-21T01:08:38.080Z,10.10
2023-02-21T01:11:20.975Z,9.57
2023-02-21T01:14:07.845Z,10.16
2023-02-21T01:16:50.653Z,10.13
2023-02-21T01:19:33.510Z,10.06
2023-02-21T01:22:16.982Z,10.20
2023-02-21T01:24:59.639Z,10.08
2023-02-21T01:27:42.749Z,10.26
2023-02-21T01:30:28.900Z,10.30
2023-02-21T01:33:11.856Z,10.28
2023-02-21T01:35:54.328Z,10.32
2023-02-21T01:38:37.691Z,10.52
2023-02-21T01:41:20.696Z,10.39
2023-02-21T01:44:14.467Z,10.44
2023-02-21T01:47:01.465Z,10.37
2023-02-21T01:49:45.356Z,10.48
2023-02-21T01:52:28.323Z,10.31
2023-02-21T01:55:12.634Z,10.43
2023-02-21T01:57:56.295Z,10.51
2023-02-21T02:00:40.266Z,10.49
2023-02-21T02:03:28.228Z,10.63
2023-02-21T02:06:13.695Z,10.57
2023-02-21T02:08:57.240Z,10.65
2023-02-21T02:12:00.245Z,10.56
2023-02-21T02:14:54.534Z,10.58
2023-02-21T02:17:38.655Z,10.50
2023-02-21T02:20:51.377Z,10.45
2023-02-21T02:23:52.457Z,10.60
2023-02-21T02:26:53.876Z,10.53
2023-02-21T02:29:47.074Z,10.63
2023-02-21T02:32:40.588Z,10.47
2023-02-21T02:35:17.276Z,10.52
2023-02-21T02:37:55.158Z,10.66
2023-02-21T02:40:35.737Z,10.50
2023-02-21T02:43:13.761Z,10.13
2023-02-21T02:45:49.216Z,10.41
2023-02-21T02:48:25.974Z,10.62
2023-02-21T02:51:04.052Z,10.46
2023-02-21T02:53:36.296Z,10.54
2023-02-21T02:56:10.196Z,10.61
2023-02-21T02:58:45.087Z,10.23
2023-02-21T03:01:43.124Z,10.37
2023-02-21T03:04:35.619Z,10.50
2023-02-21T03:07:18.773Z,10.16
2023-02-21T03:09:57.810Z,10.57
2023-02-21T03:12:37.013Z,10.48
2023-02-21T03:15:15.258Z,10.05
2023-02-21T03:17:53.653Z,10.47
2023-02-21T03:20:25.324Z,10.53
2023-02-21T03:23:00.269Z,10.37
2023-02-21T03:25:33.256Z,10.53
2023-02-21T03:28:06.556Z,10.35
2023-02-21T03:30:45.364Z,10.50
2023-02-21T03:33:15.448Z,10.43
2023-02-21T03:35:47.552Z,10.40
2023-02-21T03:38:20.672Z,10.41
2023-02-21T03:40:52.560Z,10.40
2023-02-21T03:43:23.288Z,10.34
2023-02-21T03:46:00.090Z,10.13
2023-02-21T03:48:32.873Z,10.22
2023-02-21T03:51:26.003Z,10.19
2023-02-21T03:54:00.341Z,10.56
2023-02-21T03:56:42.277Z,10.38
2023-02-21T03:59:25.748Z,10.32
2023-02-21T04:01:56.601Z,10.20
2023-02-21T04:04:28.072Z,10.37
2023-02-21T04:07:09.438Z,10.57
2023-02-21T04:09:43.436Z,10.36
2023-02-21T04:12:16.767Z,10.64
2023-02-21T04:14:47.343Z,10.60
2023-02-21T04:17:18.610Z,10.57
2023-02-21T04:19:49.331Z,10.61
2023-02-21T04:22:20.137Z,10.55
2023-02-21T04:24:53.091Z,10.61
2023-02-21T04:27:27.376Z,10.53
2023-02-21T04:29:59.976Z,10.44
2023-02-21T04:32:31.867Z,10.35
2023-02-21T04:35:05.538Z,10.40
2023-02-21T04:37:37.354Z,10.37
2023-02-21T04:40:11.509Z,10.36
2023-02-21T04:42:41.849Z,10.38
2023-02-21T04:45:12.810Z,10.30
2023-02-21T04:47:43.344Z,10.39
2023-02-21T04:50:13.575Z,10.30
2023-02-21T04:52:43.895Z,9.96
2023-02-21T04:55:17.986Z,10.34
2023-02-21T04:57:48.012Z,10.41
2023-02-21T05:00:20.146Z,10.34
2023-02-21T05:02:50.268Z,10.37
2023-02-21T05:05:20.609Z,10.24
2023-02-21T05:07:50.593Z,10.31
2023-02-21T05:10:25.434Z,10.34
2023-02-21T05:12:57.040Z,10.39
2023-02-21T05:15:27.277Z,10.45
2023-02-21T05:17:57.254Z,10.41
2023-02-21T05:20:27.140Z,10.41
2023-02-21T05:23:02.065Z,10.33
2023-02-21T05:25:37.986Z,10.08
2023-02-21T05:28:08.203Z,10.32
2023-02-21T05:30:38.357Z,10.36
2023-02-21T05:33:08.642Z,10.29
2023-02-21T05:35:38.771Z,10.30
2023-02-21T05:38:08.969Z,10.31
2023-02-21T05:40:41.834Z,10.29
2023-02-21T05:43:11.949Z,10.46
2023-02-21T05:45:41.904Z,10.40
2023-02-21T05:48:12.061Z,10.35
2023-02-21T05:50:42.470Z,10.35
2023-02-21T05:53:12.435Z,10.01
2023-02-21T05:55:45.040Z,10.42
2023-02-21T05:58:14.965Z,10.43
2023-02-21T06:00:44.725Z,9.99
2023-02-21T06:03:14.377Z,10.42
2023-02-21T06:05:44.389Z,10.34
2023-02-21T06:08:14.410Z,10.39
2023-02-21T06:10:48.603Z,10.20
2023-02-21T06:13:18.403Z,10.27
2023-02-21T06:15:48.146Z,10.32
2023-02-21T06:18:19.043Z,10.13
2023-02-21T06:20:49.005Z,9.89
2023-02-21T06:23:19.053Z,10.03
2023-02-21T06:25:51.632Z,10.00
2023-02-21T06:28:21.325Z,10.43
2023-02-21T06:30:51.019Z,10.42
2023-02-21T06:33:20.663Z,10.33
2023-02-21T06:35:50.276Z,10.39
2023-02-21T06:38:19.976Z,10.55
2023-02-21T06:40:52.436Z,10.37
2023-02-21T06:43:28.704Z,10.55
2023-02-21T06:46:00.581Z,10.56
2023-02-21T06:48:31.417Z,10.57
2023-02-21T06:51:03.171Z,10.47
2023-02-21T06:53:34.795Z,10.48
2023-02-21T06:56:09.977Z,10.34
2023-02-21T06:58:51.937Z,10.46
2023-02-21T07:01:24.338Z,10.48
2023-02-21T07:03:59.046Z,10.26
2023-02-21T07:06:34.082Z,10.11
2023-02-21T07:17:20.661Z,10.43
2023-02-21T07:37:54.414Z,9.57
2023-02-21T07:40:24.410Z,10.33
2023-02-21T07:42:54.494Z,10.48
2023-02-21T07:45:25.630Z,10.31
2023-02-21T07:47:55.517Z,10.38
2023-02-21T07:50:25.261Z,10.57
2023-02-21T07:52:59.799Z,10.25
2023-02-21T07:55:29.477Z,10.48
2023-02-21T07:57:59.148Z,10.60
2023-02-21T08:00:29.240Z,10.53
2023-02-21T08:02:59.000Z,10.58
2023-02-21T08:05:28.986Z,10.46
2023-02-21T08:08:01.243Z,10.57
2023-02-21T08:10:31.067Z,10.54
2023-02-21T08:13:00.724Z,10.48
2023-02-21T08:15:30.503Z,10.46
2023-02-21T08:18:00.176Z,10.53
2023-02-21T08:20:29.809Z,10.48
2023-02-21T08:23:02.049Z,10.57
2023-02-21T08:25:31.708Z,10.55
2023-02-21T08:28:01.317Z,10.52
2023-02-21T08:30:31.017Z,10.61
2023-02-21T08:33:00.641Z,10.87
2023-02-21T08:35:31.049Z,10.86
2023-02-21T08:38:05.076Z,11.12
2023-02-21T08:40:35.796Z,11.20
2023-02-21T08:43:05.877Z,11.07
2023-02-21T08:45:35.859Z,11.14
2023-02-21T08:48:08.709Z,10.98
2023-02-21T08:50:38.433Z,10.79
2023-02-21T08:53:10.774Z,10.81
2023-02-21T08:55:40.441Z,11.08
2023-02-21T08:58:10.097Z,10.99
2023-02-21T09:00:39.785Z,11.00
2023-02-21T09:03:09.500Z,10.94
2023-02-21T09:05:39.161Z,10.76
2023-02-21T09:08:21.148Z,11.02
2023-02-21T09:11:05.715Z,9.26
2023-02-21T09:13:42.436Z,10.89
2023-02-21T09:16:16.609Z,10.88
2023-02-21T11:36:43.137Z,11.70
2023-02-21T11:40:01.747Z,11.07
2023-02-21T11:43:08.258Z,10.36
2023-02-21T11:46:03.664Z,11.12
2023-02-21T11:49:49.845Z,11.87
2023-02-21T11:55:31.823Z,10.79
2023-02-21T12:10:58.528Z,10.78
2023-02-21T12:22:21.485Z,11.39
2023-02-21T12:28:46.090Z,11.24
2023-02-21T12:31:31.484Z,11.55
2023-02-21T13:20:50.768Z,9.35
2023-02-21T13:24:31.138Z,10.54
2023-02-21T13:28:19.890Z,10.66
2023-02-21T13:31:06.632Z,10.80
2023-02-21T13:34:07.540Z,10.95
2023-02-21T13:37:50.123Z,10.95
2023-02-21T13:41:18.824Z,10.87
2023-02-21T13:49:03.316Z,9.90
2023-02-21T13:53:05.382Z,9.96
2023-02-21T13:57:01.917Z,9.96
2023-02-21T14:00:24.352Z,9.94
2023-02-21T14:06:00.099Z,11.69
2023-02-21T14:08:27.616Z,11.58
2023-02-21T14:11:38.830Z,11.59
2023-02-21T14:14:49.962Z,11.28
2023-02-21T14:17:32.273Z,11.55
2023-02-21T14:20:09.368Z,10.65
2023-02-21T14:22:42.204Z,10.72
2023-02-21T14:25:21.669Z,11.67
2023-02-21T14:27:53.488Z,11.53
2023-02-21T14:30:32.096Z,11.66
2023-02-21T14:33:20.850Z,11.46
2023-02-21T14:36:01.040Z,11.36
2023-02-21T14:38:39.283Z,10.80
2023-02-21T14:41:27.044Z,11.44
2023-02-21T14:44:09.869Z,11.52
2023-02-21T14:46:55.010Z,11.51
2023-02-21T14:49:43.528Z,11.35
2023-02-21T14:52:53.239Z,11.54
2023-02-21T14:56:03.800Z,11.43
2023-02-21T14:59:07.008Z,11.61
2023-02-21T15:01:57.609Z,11.64
2023-02-21T15:04:37.748Z,11.65
2023-02-21T15:07:19.008Z,11.66
2023-02-21T15:10:07.196Z,11.65
2023-02-21T15:12:44.673Z,11.69
2023-02-21T15:15:20.263Z,11.76
2023-02-21T15:18:01.124Z,11.81
2023-02-21T15:20:33.840Z,11.82
2023-02-21T15:23:08.128Z,11.71
2023-02-21T15:25:38.195Z,11.59
2023-02-21T15:28:23.058Z,11.43
2023-02-21T15:31:05.285Z,11.50
2023-02-21T15:33:37.440Z,11.40
2023-02-21T15:36:09.912Z,11.59
2023-02-21T15:38:44.956Z,11.52
2023-02-21T15:41:23.408Z,11.55
2023-02-21T15:44:00.837Z,11.42
2023-02-21T15:46:34.632Z,11.57
2023-02-21T15:49:07.400Z,11.54
2023-02-21T15:51:40.949Z,11.54
2023-02-21T15:54:12.287Z,11.43
2023-02-21T15:56:42.595Z,11.32
2023-02-21T15:59:21.375Z,11.13
2023-02-21T16:02:19.945Z,11.16
2023-02-21T16:04:51.289Z,11.33
2023-02-21T16:07:24.932Z,11.28
2023-02-21T16:10:03.390Z,11.17
2023-02-21T16:12:38.140Z,11.04
2023-02-21T16:15:23.416Z,11.22
2023-02-21T16:17:56.986Z,11.10
2023-02-21T16:20:31.262Z,10.95
2023-02-21T16:23:26.020Z,10.81
2023-02-21T16:26:01.514Z,10.87
2023-02-21T16:28:31.824Z,10.60
2023-02-21T16:31:06.359Z,10.76
2023-02-21T16:33:37.976Z,10.57
2023-02-21T16:36:10.728Z,10.70
2023-02-21T16:38:40.457Z,10.84
2023-02-21T16:41:16.202Z,10.78
2023-02-21T16:43:46.155Z,10.59
2023-02-21T16:46:28.416Z,10.68
2023-02-21T16:49:00.013Z,10.49
2023-02-21T16:51:34.787Z,10.37
2023-02-21T16:54:05.218Z,10.62
2023-02-21T16:56:35.318Z,10.52
2023-02-21T16:59:05.881Z,10.61
2023-02-21T17:01:39.200Z,10.61
2023-02-21T17:04:09.220Z,10.76
2023-02-21T17:06:38.928Z,10.92
2023-02-21T17:09:08.607Z,10.95
2023-02-21T17:11:38.272Z,10.82
2023-02-21T17:14:07.910Z,10.80
2023-02-21T17:16:40.264Z,10.74
2023-02-21T17:19:12.557Z,10.87
2023-02-21T17:21:42.367Z,10.75
2023-02-21T17:24:14.086Z,10.75
2023-02-21T17:26:44.145Z,10.69
2023-02-21T17:29:14.460Z,10.83
2023-02-21T17:31:46.786Z,10.93
2023-02-21T17:34:16.617Z,11.04
2023-02-21T17:36:46.333Z,11.22
2023-02-21T18:24:13.266Z,11.21
2023-02-21T18:26:42.955Z,11.35
2023-02-21T18:29:12.655Z,11.29
2023-02-21T18:31:47.587Z,11.35
2023-02-21T18:34:21.267Z,11.27
2023-02-21T18:36:56.228Z,11.25
2023-02-21T23:19:45.099Z,10.71
2023-02-21T23:22:17.403Z,10.52
2023-02-21T23:24:47.206Z,10.37
2023-02-21T23:27:16.875Z,10.45
2023-02-21T23:29:47.890Z,10.32
2023-02-21T23:32:17.565Z,10.34
2023-02-21T23:34:50.836Z,10.56
2023-02-21T23:37:23.110Z,10.52
2023-02-21T23:39:52.716Z,10.62
2023-02-21T23:42:23.815Z,10.56
2023-02-21T23:44:54.505Z,10.63
2023-02-21T23:47:24.225Z,10.60
2023-02-21T23:49:58.109Z,10.63
2023-02-21T23:52:30.487Z,10.48
2023-02-21T23:55:00.444Z,10.15
2023-02-21T23:57:31.436Z,10.66
